Time;durP1;ratioP1;P1;durP2;ratioP2;P2;SDS_P1;SDS_P2;PMS_P1;PMS_P2;Temp;Humidity;BMP_temperature;BMP_pressure;BME280_temperature;BME280_humidity;BME280_pressure;Samples;Min_cycle;Max_cycle;Signal;HPM_P1;HPM_P2
2023/10/09 00:03:01;;;;;;;10.85;3.90;;;;;;;;;;4940576;28;20047;-67
2023/10/09 00:05:45;;;;;;;10.70;4.20;;;;;;;;;;4943643;28;20046;-68
2023/10/09 00:08:30;;;;;;;9.82;4.40;;;;;;;;;;4936818;28;20109;-68
2023/10/09 00:10:57;;;;;;;9.43;4.28;;;;;;;;;;4945354;28;20117;-68
2023/10/09 00:13:31;;;;;;;9.18;4.30;;;;;;;;;;4943484;28;20374;-67
2023/10/09 00:16:00;;;;;;;8.23;3.83;;;;;;;;;;4941466;28;20034;-67
2023/10/09 00:18:29;;;;;;;8.52;3.92;;;;;;;;;;4945842;28;20600;-67
2023/10/09 00:21:11;;;;;;;8.82;4.35;;;;;;;;;;4941162;28;20525;-67
2023/10/09 00:23:37;;;;;;;10.98;4.38;;;;;;;;;;4945146;28;20030;-67
2023/10/09 00:26:12;;;;;;;9.52;4.20;;;;;;;;;;4940037;28;20034;-67
2023/10/09 00:28:47;;;;;;;8.95;4.00;;;;;;;;;;4942015;28;20029;-70
2023/10/09 00:31:16;;;;;;;9.35;4.13;;;;;;;;;;4942683;28;20555;-69
2023/10/09 00:33:43;;;;;;;9.77;4.30;;;;;;;;;;4944082;28;20027;-69
2023/10/09 00:36:09;;;;;;;9.65;3.97;;;;;;;;;;4943929;28;20026;-69
2023/10/09 00:38:50;;;;;;;10.60;4.35;;;;;;;;;;4945701;28;20492;-69
2023/10/09 00:41:20;;;;;;;8.85;4.10;;;;;;;;;;4939532;28;20038;-67
2023/10/09 00:43:49;;;;;;;10.73;4.40;;;;;;;;;;4941302;28;20718;-68
2023/10/09 00:48:47;;;;;;;9.73;4.10;;;;;;;;;;4940898;28;20389;-68
2023/10/09 00:51:22;;;;;;;9.85;3.97;;;;;;;;;;4944342;28;20033;-68
2023/10/09 00:53:51;;;;;;;9.80;4.13;;;;;;;;;;4943897;28;20654;-68
2023/10/09 00:57:07;;;;;;;8.23;4.13;;;;;;;;;;4943650;28;20124;-68
2023/10/09 00:59:09;;;;;;;8.48;3.90;;;;;;;;;;4933069;28;20113;-67
2023/10/09 01:01:40;;;;;;;10.68;4.18;;;;;;;;;;4944722;28;20142;-68
2023/10/09 01:04:17;;;;;;;9.13;4.18;;;;;;;;;;4939886;28;20127;-68
2023/10/09 01:06:44;;;;;;;8.95;4.03;;;;;;;;;;4943669;28;20586;-68
2023/10/09 01:09:14;;;;;;;10.85;4.00;;;;;;;;;;4936702;28;20034;-69
2023/10/09 01:12:03;;;;;;;10.20;4.40;;;;;;;;;;4942058;28;20547;-68
2023/10/09 01:14:31;;;;;;;7.95;3.90;;;;;;;;;;4940965;28;20030;-67
2023/10/09 01:16:57;;;;;;;8.70;3.92;;;;;;;;;;4941392;28;20035;-69
2023/10/09 01:19:23;;;;;;;9.02;4.13;;;;;;;;;;4948618;28;20575;-69
2023/10/09 01:21:53;;;;;;;8.65;3.92;;;;;;;;;;4942994;28;20057;-68
2023/10/09 01:24:19;;;;;;;8.43;4.00;;;;;;;;;;4942578;28;20402;-69
2023/10/09 01:26:46;;;;;;;8.75;4.10;;;;;;;;;;4942333;28;20026;-68
2023/10/09 01:29:20;;;;;;;9.20;3.50;;;;;;;;;;4938606;28;20770;-68
2023/10/09 01:31:55;;;;;;;11.30;4.43;;;;;;;;;;4943248;28;20066;-69
2023/10/09 01:34:49;;;;;;;8.38;4.07;;;;;;;;;;4940591;28;20039;-68
2023/10/09 01:37:22;;;;;;;8.93;3.92;;;;;;;;;;4939039;28;20472;-67
2023/10/09 01:39:52;;;;;;;8.93;3.75;;;;;;;;;;4939909;28;20082;-69
2023/10/09 01:45:15;;;;;;;9.13;3.78;;;;;;;;;;4938899;28;20253;-66
2023/10/09 01:47:51;;;;;;;8.65;3.80;;;;;;;;;;4941679;28;20575;-69
2023/10/09 01:50:24;;;;;;;9.40;4.10;;;;;;;;;;4939501;28;20093;-69
2023/10/09 01:52:53;;;;;;;9.25;3.50;;;;;;;;;;4939806;28;20027;-69
2023/10/09 01:58:05;;;;;;;8.77;3.90;;;;;;;;;;4939602;28;20093;-69
2023/10/09 02:00:42;;;;;;;8.10;3.88;;;;;;;;;;4942306;28;20148;-67
2023/10/09 02:03:12;;;;;;;8.40;3.97;;;;;;;;;;4941083;28;20057;-68
2023/10/09 02:05:39;;;;;;;8.05;3.70;;;;;;;;;;4945787;28;20281;-69
2023/10/09 02:08:09;;;;;;;9.20;4.22;;;;;;;;;;4939296;28;20034;-68
2023/10/09 02:10:37;;;;;;;9.93;4.07;;;;;;;;;;4942438;28;20086;-68
2023/10/09 02:13:06;;;;;;;8.95;4.00;;;;;;;;;;4943058;28;20041;-70
2023/10/09 02:23:51;;;;;;;9.40;4.30;;;;;;;;;;4944964;28;20569;-68
2023/10/09 02:31:51;;;;;;;9.60;3.60;;;;;;;;;;4902807;29;20075;-69
2023/10/09 02:34:27;;;;;;;8.63;4.07;;;;;;;;;;4902490;29;20059;-69
2023/10/09 02:37:05;;;;;;;9.50;4.07;;;;;;;;;;4900655;29;20027;-69
2023/10/09 02:39:43;;;;;;;8.20;3.60;;;;;;;;;;4887005;29;20059;-69
2023/10/09 02:44:46;;;;;;;10.23;4.30;;;;;;;;;;4901132;29;20050;-69
2023/10/09 02:47:20;;;;;;;8.57;4.30;;;;;;;;;;4900090;29;21327;-72
2023/10/09 02:49:48;;;;;;;9.70;4.20;;;;;;;;;;4900912;29;20094;-68
2023/10/09 02:52:18;;;;;;;9.48;4.40;;;;;;;;;;4898965;29;20426;-69
2023/10/09 02:54:47;;;;;;;9.10;3.92;;;;;;;;;;4899865;29;20052;-68
2023/10/09 02:57:22;;;;;;;9.45;4.28;;;;;;;;;;4897658;29;20028;-68
2023/10/09 02:59:51;;;;;;;8.40;3.90;;;;;;;;;;4885875;29;20043;-68
2023/10/09 03:02:18;;;;;;;8.75;4.10;;;;;;;;;;4884788;29;20261;-69
2023/10/09 03:04:45;;;;;;;9.13;3.88;;;;;;;;;;4905872;28;20040;-69
2023/10/09 03:07:13;;;;;;;8.30;4.13;;;;;;;;;;4941481;28;20532;-69
2023/10/09 03:09:40;;;;;;;8.85;3.88;;;;;;;;;;4943209;28;20157;-69
2023/10/09 03:12:09;;;;;;;8.07;4.00;;;;;;;;;;4937832;28;20100;-68
2023/10/09 03:14:39;;;;;;;9.73;4.07;;;;;;;;;;4942161;28;20429;-67
2023/10/09 03:17:11;;;;;;;8.55;4.10;;;;;;;;;;4944461;28;20915;-67
2023/10/09 03:19:37;;;;;;;8.45;4.03;;;;;;;;;;4944996;28;20114;-68
2023/10/09 03:22:04;;;;;;;9.20;4.25;;;;;;;;;;4943411;28;20027;-67
2023/10/09 03:24:33;;;;;;;9.07;4.13;;;;;;;;;;4942707;28;20034;-68
2023/10/09 03:27:00;;;;;;;8.70;4.20;;;;;;;;;;4945091;28;20011;-68
2023/10/09 03:29:27;;;;;;;9.45;4.30;;;;;;;;;;4943689;28;20290;-67
2023/10/09 03:31:55;;;;;;;9.70;3.97;;;;;;;;;;4937538;28;20034;-67
2023/10/09 03:34:21;;;;;;;9.15;4.05;;;;;;;;;;4943093;28;20035;-68
2023/10/09 03:36:48;;;;;;;8.38;3.85;;;;;;;;;;4945892;28;20678;-67
2023/10/09 03:41:59;;;;;;;9.35;4.00;;;;;;;;;;4942892;28;20090;-68
2023/10/09 03:44:28;;;;;;;9.18;4.28;;;;;;;;;;4946673;28;20050;-67
2023/10/09 03:46:55;;;;;;;9.40;3.95;;;;;;;;;;4945132;28;20030;-67
2023/10/09 03:49:25;;;;;;;9.75;4.22;;;;;;;;;;4947450;28;20045;-67
2023/10/09 03:51:52;;;;;;;8.18;3.97;;;;;;;;;;4945119;28;20023;-67
2023/10/09 03:54:22;;;;;;;9.48;4.32;;;;;;;;;;4947420;28;20111;-68
2023/10/09 03:56:54;;;;;;;8.70;3.88;;;;;;;;;;4943001;28;20053;-68
2023/10/09 03:59:21;;;;;;;8.95;4.22;;;;;;;;;;4944247;28;20319;-68
2023/10/09 04:01:50;;;;;;;9.77;4.55;;;;;;;;;;4947356;28;20066;-68
2023/10/09 04:04:17;;;;;;;8.32;3.97;;;;;;;;;;4945846;28;20126;-68
2023/10/09 04:06:43;;;;;;;9.38;4.20;;;;;;;;;;4945068;28;20054;-68
2023/10/09 04:09:27;;;;;;;7.85;3.97;;;;;;;;;;4943857;28;20031;-68
2023/10/09 04:15:24;;;;;;;9.45;4.35;;;;;;;;;;4942179;28;20037;-68
2023/10/09 04:25:42;;;;;;;9.23;4.43;;;;;;;;;;4931468;28;20161;-68
2023/10/09 04:28:09;;;;;;;9.55;4.72;;;;;;;;;;4938113;28;20120;-67
2023/10/09 04:30:53;;;;;;;10.40;4.30;;;;;;;;;;4943710;28;20078;-67
2023/10/09 04:33:40;;;;;;;8.20;4.18;;;;;;;;;;4940856;28;20034;-67
2023/10/09 04:44:19;;;;;;;8.73;4.50;;;;;;;;;;4879557;29;20099;-67
2023/10/09 04:49:45;;;;;;;9.75;4.82;;;;;;;;;;4886198;29;20432;-67
2023/10/09 04:52:19;;;;;;;10.63;4.72;;;;;;;;;;4884520;29;20042;-68
2023/10/09 04:57:37;;;;;;;12.27;4.75;;;;;;;;;;4882897;29;20583;-67
2023/10/09 05:00:06;;;;;;;8.98;4.38;;;;;;;;;;4882004;29;20046;-67
2023/10/09 05:02:37;;;;;;;9.38;4.22;;;;;;;;;;4886426;29;20098;-67
2023/10/09 05:05:48;;;;;;;9.60;3.92;;;;;;;;;;4881923;29;20274;-67
2023/10/09 05:08:20;;;;;;;10.50;3.78;;;;;;;;;;4882210;29;20039;-68
2023/10/09 05:16:04;;;;;;;11.38;4.72;;;;;;;;;;4919208;28;20449;-68
2023/10/09 05:18:36;;;;;;;9.40;4.78;;;;;;;;;;4944859;28;20027;-68
2023/10/09 05:23:48;;;;;;;10.77;4.40;;;;;;;;;;4945149;28;20165;-68
2023/10/09 05:26:37;;;;;;;;;;;;;;;;;;4937049;28;20101;-68
2023/10/09 05:29:19;;;;;;;10.65;4.32;;;;;;;;;;4941987;28;19914;-68
2023/10/09 05:32:35;;;;;;;12.85;4.40;;;;;;;;;;4944692;28;20521;-68
2023/10/09 05:37:22;;;;;;;8.75;4.20;;;;;;;;;;4944652;28;20050;-68
2023/10/09 05:42:42;;;;;;;9.15;4.30;;;;;;;;;;4939359;28;20061;-67
2023/10/09 05:47:53;;;;;;;10.70;5.00;;;;;;;;;;4939518;28;20061;-67
2023/10/09 06:03:48;;;;;;;9.55;4.60;;;;;;;;;;4940252;28;20328;-67
2023/10/09 06:09:34;;;;;;;10.25;4.28;;;;;;;;;;4939669;28;20054;-67
2023/10/09 06:12:33;;;;;;;9.35;3.95;;;;;;;;;;4937589;28;20496;-67
2023/10/09 06:19:44;;;;;;;11.27;6.22;;;;;;;;;;4940297;28;20061;-67
2023/10/09 06:24:57;;;;;;;10.80;5.45;;;;;;;;;;4935254;28;20550;-68
2023/10/09 06:35:32;;;;;;;14.10;6.07;;;;;;;;;;4943219;28;20158;-69
2023/10/09 06:43:17;;;;;;;17.50;9.73;;;;;;;;;;4935384;28;20885;-68
2023/10/09 06:45:54;;;;;;;10.77;4.93;;;;;;;;;;4938379;28;20031;-68
2023/10/09 06:58:59;;;;;;;10.90;5.03;;;;;;;;;;4940554;28;20153;-68
2023/10/09 07:03:59;;;;;;;10.18;4.93;;;;;;;;;;4941780;28;20567;-68
2023/10/09 07:14:32;;;;;;;12.48;4.90;;;;;;;;;;4940378;28;20099;-68
2023/10/09 07:17:15;;;;;;;14.98;4.75;;;;;;;;;;4938629;28;20477;-68
2023/10/09 07:24:58;;;;;;;11.02;5.00;;;;;;;;;;4947365;28;20567;-68
2023/10/09 07:32:55;;;;;;;14.88;4.40;;;;;;;;;;4942274;28;20069;-68
2023/10/09 07:38:10;;;;;;;15.88;5.07;;;;;;;;;;4943109;28;20425;-68
2023/10/09 07:43:39;;;;;;;9.95;4.25;;;;;;;;;;4867314;29;21036;-71
2023/10/09 07:48:48;;;;;;;11.13;4.93;;;;;;;;;;4868280;29;20038;-68
2023/10/09 07:51:14;;;;;;;10.73;4.63;;;;;;;;;;4849492;29;20032;-68
2023/10/09 07:53:44;;;;;;;9.02;4.22;;;;;;;;;;4869869;29;20418;-68
2023/10/09 07:56:13;;;;;;;10.65;4.03;;;;;;;;;;4845597;29;20495;-68
2023/10/09 07:58:46;;;;;;;9.98;4.38;;;;;;;;;;4865314;29;20368;-68
2023/10/09 08:03:57;;;;;;;10.48;4.47;;;;;;;;;;4864041;29;20571;-68
2023/10/09 08:06:38;;;;;;;10.48;4.63;;;;;;;;;;4870114;29;20243;-68
2023/10/09 08:19:55;;;;;;;10.50;5.78;;;;;;;;;;4918641;28;20160;-68
2023/10/09 08:24:56;;;;;;;10.65;4.43;;;;;;;;;;4940334;28;20045;-67
2023/10/09 08:27:47;;;;;;;9.50;4.18;;;;;;;;;;4944023;28;20344;-70
2023/10/09 08:33:39;;;;;;;8.75;4.13;;;;;;;;;;4944748;28;20047;-69
2023/10/09 08:35:51;;;;;;;8.52;3.60;;;;;;;;;;4939746;28;20039;-69
2023/10/09 08:38:26;;;;;;;10.00;4.70;;;;;;;;;;4942896;28;20395;-68
2023/10/09 08:40:58;;;;;;;11.75;4.03;;;;;;;;;;4940347;28;20485;-68
2023/10/09 08:43:24;;;;;;;10.63;3.90;;;;;;;;;;4940801;28;20274;-68
2023/10/09 08:45:53;;;;;;;10.43;4.28;;;;;;;;;;4939815;28;20039;-68
2023/10/09 08:48:26;;;;;;;11.85;4.35;;;;;;;;;;4940662;28;20061;-67
2023/10/09 08:50:54;;;;;;;9.80;4.80;;;;;;;;;;4939936;28;20027;-70
2023/10/09 08:53:20;;;;;;;11.73;4.47;;;;;;;;;;4940846;28;20033;-69
2023/10/09 08:55:47;;;;;;;9.73;4.57;;;;;;;;;;4943289;28;20601;-70
2023/10/09 08:58:28;;;;;;;12.43;6.10;;;;;;;;;;4938844;28;20549;-69
2023/10/09 09:00:58;;;;;;;12.05;6.05;;;;;;;;;;4939644;28;20094;-69
2023/10/09 09:03:25;;;;;;;12.68;6.45;;;;;;;;;;4939219;28;20325;-70
2023/10/09 09:06:01;;;;;;;11.73;5.05;;;;;;;;;;4939608;28;20026;-69
2023/10/09 09:08:28;;;;;;;9.98;4.30;;;;;;;;;;4942924;28;20062;-69
2023/10/09 09:11:22;;;;;;;9.27;4.55;;;;;;;;;;4941107;28;20065;-68
2023/10/09 09:13:49;;;;;;;12.07;5.70;;;;;;;;;;4941355;28;20042;-70
2023/10/09 09:16:16;;;;;;;11.00;4.88;;;;;;;;;;4936170;28;20049;-71
2023/10/09 09:21:44;;;;;;;11.23;4.57;;;;;;;;;;4940836;28;20042;-69
2023/10/09 09:26:59;;;;;;;7.60;3.35;;;;;;;;;;4943623;28;20027;-70
2023/10/09 09:29:38;;;;;;;8.13;3.30;;;;;;;;;;4942863;28;20108;-70
2023/10/09 09:32:17;;;;;;;10.80;6.00;;;;;;;;;;4935862;28;20034;-70
2023/10/09 09:35:04;;;;;;;8.82;4.53;;;;;;;;;;4939605;28;20039;-70
2023/10/09 09:37:33;;;;;;;9.02;3.67;;;;;;;;;;4944507;28;20046;-71
2023/10/09 09:40:11;;;;;;;9.75;3.60;;;;;;;;;;4936143;28;20388;-71
2023/10/09 09:42:37;;;;;;;9.48;3.50;;;;;;;;;;4938111;28;20437;-71
2023/10/09 09:45:04;;;;;;;9.65;4.13;;;;;;;;;;4935717;28;20038;-70
2023/10/09 09:47:35;;;;;;;8.00;3.47;;;;;;;;;;4939588;28;20054;-70
2023/10/09 09:50:11;;;;;;;7.72;3.08;;;;;;;;;;4934480;28;20035;-70
2023/10/09 09:52:40;;;;;;;8.25;3.40;;;;;;;;;;4940654;28;21947;-70
2023/10/09 09:55:16;;;;;;;8.45;3.33;;;;;;;;;;4940203;28;20026;-70
2023/10/09 09:57:45;;;;;;;6.80;3.00;;;;;;;;;;4942656;28;20438;-70
2023/10/09 10:00:42;;;;;;;9.27;3.80;;;;;;;;;;4956888;28;20488;-70
2023/10/09 10:03:38;;;;;;;8.27;3.38;;;;;;;;;;4938241;28;20283;-70
2023/10/09 10:06:09;;;;;;;;;;;;;;;;;;4919817;28;20131;-69
2023/10/09 10:08:39;;;;;;;7.32;2.90;;;;;;;;;;4954796;28;19918;-70
2023/10/09 10:11:05;;;;;;;7.18;2.90;;;;;;;;;;4936092;28;20405;-70
2023/10/09 10:13:41;;;;;;;7.13;2.65;;;;;;;;;;4942832;28;20035;-70
2023/10/09 10:16:15;;;;;;;;;;;;;;;;;;4937028;28;20023;-70
2023/10/09 10:19:07;;;;;;;10.00;5.43;;;;;;;;;;4941736;28;20570;-70
2023/10/09 10:21:40;;;;;;;7.65;2.95;;;;;;;;;;4939149;28;20073;-70
2023/10/09 10:24:27;;;;;;;8.02;3.22;;;;;;;;;;4936885;28;20032;-71
2023/10/09 10:27:18;;;;;;;12.02;6.18;;;;;;;;;;4938536;28;20118;-70
2023/10/09 10:29:50;;;;;;;9.68;4.88;;;;;;;;;;4939766;28;20027;-71
2023/10/09 10:32:20;;;;;;;13.02;4.43;;;;;;;;;;4940503;28;20031;-70
2023/10/09 10:35:06;;;;;;;8.75;3.50;;;;;;;;;;4944898;28;20033;-70
2023/10/09 10:38:15;;;;;;;7.60;3.40;;;;;;;;;;4944910;28;20376;-70
2023/10/09 10:40:46;;;;;;;15.18;3.85;;;;;;;;;;4940137;28;20038;-70
2023/10/09 10:43:47;;;;;;;10.95;3.60;;;;;;;;;;4942054;28;21731;-70
2023/10/09 10:46:15;;;;;;;8.23;3.22;;;;;;;;;;4939015;28;20122;-70
2023/10/09 10:48:46;;;;;;;9.23;3.47;;;;;;;;;;4948618;28;20479;-70
2023/10/09 10:51:15;;;;;;;9.95;3.47;;;;;;;;;;4945030;28;21436;-70
2023/10/09 10:53:57;;;;;;;8.60;3.78;;;;;;;;;;4941076;28;20445;-70
2023/10/09 10:56:37;;;;;;;7.43;3.35;;;;;;;;;;4947039;28;20031;-71
2023/10/09 11:12:42;;;;;;;8.88;4.38;;;;;;;;;;4871829;29;20059;-70
2023/10/09 11:15:34;;;;;;;9.98;5.65;;;;;;;;;;4870941;29;20044;-71
2023/10/09 11:17:58;;;;;;;9.80;4.38;;;;;;;;;;4871630;29;20044;-70
2023/10/09 11:20:26;;;;;;;8.48;3.50;;;;;;;;;;4878416;29;20043;-71
2023/10/09 11:25:39;;;;;;;9.20;3.75;;;;;;;;;;4866147;29;20328;-71
2023/10/09 11:28:31;;;;;;;8.25;3.03;;;;;;;;;;4868070;29;20108;-71
2023/10/09 11:31:07;;;;;;;7.22;3.33;;;;;;;;;;4872335;29;20159;-72
2023/10/09 11:33:45;;;;;;;10.98;3.67;;;;;;;;;;4878099;29;20170;-71
2023/10/09 11:36:14;;;;;;;10.43;3.53;;;;;;;;;;4851680;29;20127;-71
2023/10/09 11:38:45;;;;;;;10.43;3.95;;;;;;;;;;4871999;29;20037;-72
2023/10/09 11:41:24;;;;;;;12.07;4.10;;;;;;;;;;4905865;28;20050;-72
2023/10/09 11:43:51;;;;;;;7.40;3.15;;;;;;;;;;4939169;28;20659;-68
2023/10/09 11:46:36;;;;;;;9.55;3.30;;;;;;;;;;4939675;28;20035;-68
2023/10/09 11:52:56;;;;;;;11.30;3.40;;;;;;;;;;4932877;28;20153;-68
2023/10/09 11:54:56;;;;;;;8.13;3.70;;;;;;;;;;4931528;28;20256;-67
2023/10/09 11:57:30;;;;;;;9.52;3.70;;;;;;;;;;4941094;28;20041;-67
2023/10/09 11:59:56;;;;;;;11.88;3.75;;;;;;;;;;4939382;28;20031;-69
2023/10/09 12:02:22;;;;;;;9.68;3.83;;;;;;;;;;4944112;28;20340;-69
2023/10/09 12:04:48;;;;;;;8.75;3.45;;;;;;;;;;4942867;28;20023;-67
2023/10/09 12:07:15;;;;;;;7.65;3.10;;;;;;;;;;4956329;28;20077;-67
2023/10/09 12:09:41;;;;;;;6.85;3.03;;;;;;;;;;4947505;28;20102;-69
2023/10/09 12:12:09;;;;;;;9.00;3.20;;;;;;;;;;4939315;28;20124;-69
2023/10/09 12:14:37;;;;;;;8.20;3.50;;;;;;;;;;4947567;28;20031;-69
2023/10/09 12:17:07;;;;;;;7.97;3.05;;;;;;;;;;4939420;28;20036;-67
2023/10/09 12:19:34;;;;;;;7.45;3.20;;;;;;;;;;4943385;28;20066;-67
2023/10/09 12:22:00;;;;;;;7.18;3.28;;;;;;;;;;4940757;28;20125;-68
2023/10/09 12:24:28;;;;;;;7.38;2.97;;;;;;;;;;4940907;28;20035;-68
2023/10/09 12:26:55;;;;;;;7.35;3.08;;;;;;;;;;4936458;28;20034;-68
2023/10/09 12:29:21;;;;;;;8.98;2.97;;;;;;;;;;4942259;28;20037;-67
2023/10/09 12:31:47;;;;;;;8.00;3.40;;;;;;;;;;4944666;28;20276;-68
2023/10/09 12:34:16;;;;;;;8.25;3.10;;;;;;;;;;4941227;28;20817;-68
2023/10/09 12:36:43;;;;;;;8.23;2.90;;;;;;;;;;4945322;28;20033;-69
2023/10/09 12:39:17;;;;;;;7.47;3.00;;;;;;;;;;4936583;28;20057;-68
2023/10/09 12:41:44;;;;;;;7.13;3.03;;;;;;;;;;4939734;28;20793;-68
2023/10/09 12:44:14;;;;;;;7.45;3.20;;;;;;;;;;4940044;28;20110;-68
2023/10/09 12:46:51;;;;;;;8.30;3.60;;;;;;;;;;4945933;28;20039;-68
2023/10/09 12:52:29;;;;;;;8.48;3.20;;;;;;;;;;4935505;28;20572;-67
2023/10/09 12:54:55;;;;;;;7.55;3.08;;;;;;;;;;4940179;28;20533;-68
2023/10/09 12:57:23;;;;;;;8.00;3.78;;;;;;;;;;4942359;28;20038;-69
2023/10/09 12:59:50;;;;;;;7.90;3.10;;;;;;;;;;4944977;28;20118;-68
2023/10/09 13:02:28;;;;;;;9.45;3.20;;;;;;;;;;4888501;28;1458441;-68
2023/10/09 13:04:59;;;;;;;8.35;3.25;;;;;;;;;;4940455;28;20037;-68
2023/10/09 13:07:25;;;;;;;7.30;3.03;;;;;;;;;;4943140;28;20057;-68
2023/10/09 13:10:12;;;;;;;7.32;2.90;;;;;;;;;;4943275;28;20151;-69
2023/10/09 13:12:41;;;;;;;7.90;3.10;;;;;;;;;;4941400;28;20052;-68
2023/10/09 13:15:09;;;;;;;8.30;3.20;;;;;;;;;;4939163;28;20023;-69
2023/10/09 13:17:36;;;;;;;7.95;2.97;;;;;;;;;;4945334;28;20046;-68
2023/10/09 13:20:12;;;;;;;7.50;3.17;;;;;;;;;;4936675;28;20034;-69
2023/10/09 13:22:39;;;;;;;7.68;3.13;;;;;;;;;;4943618;28;20138;-68
2023/10/09 13:25:06;;;;;;;11.18;3.13;;;;;;;;;;4940506;28;20033;-67
2023/10/09 13:27:35;;;;;;;7.13;2.80;;;;;;;;;;4943853;28;20025;-68
2023/10/09 13:30:21;;;;;;;7.68;3.20;;;;;;;;;;4942224;28;20037;-68
2023/10/09 13:32:49;;;;;;;12.77;3.15;;;;;;;;;;4940986;28;20034;-67
2023/10/09 13:35:17;;;;;;;8.05;3.15;;;;;;;;;;4942632;28;20034;-67
2023/10/09 13:37:44;;;;;;;8.15;3.00;;;;;;;;;;4945068;28;20619;-67
2023/10/09 13:40:11;;;;;;;8.20;3.10;;;;;;;;;;4939470;28;20432;-68
2023/10/09 13:42:38;;;;;;;9.40;3.15;;;;;;;;;;4943594;28;20476;-69
2023/10/09 13:45:15;;;;;;;9.93;3.25;;;;;;;;;;4941063;28;20018;-68
2023/10/09 13:47:44;;;;;;;6.97;3.08;;;;;;;;;;4943074;28;20049;-69
2023/10/09 13:50:10;;;;;;;8.07;3.40;;;;;;;;;;4939271;28;20026;-69
2023/10/09 13:52:39;;;;;;;8.02;3.10;;;;;;;;;;4942901;28;20319;-69
2023/10/09 13:55:15;;;;;;;9.13;3.20;;;;;;;;;;4940965;28;20038;-69
2023/10/09 13:57:45;;;;;;;7.70;3.03;;;;;;;;;;4944936;28;20038;-70
2023/10/09 14:00:17;;;;;;;7.70;3.03;;;;;;;;;;4938534;28;20670;-69
2023/10/09 14:02:43;;;;;;;8.63;3.33;;;;;;;;;;4942131;28;20848;-69
2023/10/09 14:05:09;;;;;;;7.35;3.08;;;;;;;;;;4938639;28;20371;-70
2023/10/09 14:07:35;;;;;;;7.03;2.92;;;;;;;;;;4943257;28;20041;-69
2023/10/09 14:10:17;;;;;;;9.43;3.55;;;;;;;;;;4940228;28;20058;-67
2023/10/09 14:12:43;;;;;;;8.38;3.20;;;;;;;;;;4946735;28;20363;-68
2023/10/09 14:15:16;;;;;;;8.55;3.25;;;;;;;;;;4943899;28;20408;-69
2023/10/09 14:17:42;;;;;;;8.10;3.27;;;;;;;;;;4943835;28;20215;-68
2023/10/09 14:22:54;;;;;;;9.85;3.40;;;;;;;;;;4943216;28;20065;-68
2023/10/09 14:25:21;;;;;;;9.20;3.85;;;;;;;;;;4942097;28;20039;-68
2023/10/09 14:27:48;;;;;;;15.48;4.00;;;;;;;;;;4942224;28;20320;-66
2023/10/09 14:30:22;;;;;;;10.40;3.80;;;;;;;;;;4942185;28;20043;-67
2023/10/09 14:32:55;;;;;;;9.45;3.78;;;;;;;;;;4942279;28;20488;-68
2023/10/09 14:35:26;;;;;;;9.63;3.45;;;;;;;;;;4943009;28;20348;-68
2023/10/09 14:37:57;;;;;;;9.88;3.80;;;;;;;;;;4943945;28;20435;-68
2023/10/09 14:40:29;;;;;;;8.77;3.05;;;;;;;;;;4939249;28;20043;-68
2023/10/09 14:42:57;;;;;;;9.98;4.03;;;;;;;;;;4937781;28;20023;-69
2023/10/09 14:45:27;;;;;;;9.93;3.60;;;;;;;;;;4939768;28;20541;-69
2023/10/09 14:47:56;;;;;;;10.35;3.75;;;;;;;;;;4940245;28;20034;-70
2023/10/09 14:50:22;;;;;;;10.75;3.88;;;;;;;;;;4940586;28;20208;-68
2023/10/09 14:52:50;;;;;;;11.95;3.60;;;;;;;;;;4941370;28;20123;-69
2023/10/09 14:55:20;;;;;;;8.60;3.78;;;;;;;;;;4942387;28;20030;-67
2023/10/09 14:57:49;;;;;;;10.38;3.75;;;;;;;;;;4946352;28;20022;-67
2023/10/09 15:00:22;;;;;;;11.52;4.00;;;;;;;;;;4938254;28;20109;-68
2023/10/09 15:02:48;;;;;;;10.13;3.85;;;;;;;;;;4947394;28;20372;-67
2023/10/09 15:05:15;;;;;;;8.95;3.67;;;;;;;;;;4939951;28;20043;-66
2023/10/09 15:07:42;;;;;;;9.52;4.18;;;;;;;;;;4942456;28;20273;-69
2023/10/09 15:10:09;;;;;;;8.98;3.38;;;;;;;;;;4937736;28;20038;-69
2023/10/09 15:12:39;;;;;;;11.90;4.22;;;;;;;;;;4944477;28;20736;-69
2023/10/09 15:15:16;;;;;;;10.73;3.30;;;;;;;;;;4939945;28;20035;-69
2023/10/09 15:17:44;;;;;;;7.85;3.80;;;;;;;;;;4945259;28;20485;-69
2023/10/09 15:20:13;;;;;;;10.88;4.45;;;;;;;;;;4944399;28;20112;-69
2023/10/09 15:22:40;;;;;;;12.60;4.45;;;;;;;;;;4962245;28;20033;-69
2023/10/09 15:25:06;;;;;;;8.68;3.90;;;;;;;;;;4942866;28;20125;-69
2023/10/09 15:27:32;;;;;;;9.55;4.97;;;;;;;;;;4945021;28;20034;-67
2023/10/09 15:29:58;;;;;;;10.27;3.90;;;;;;;;;;4944668;28;20051;-69
2023/10/09 15:32:25;;;;;;;9.93;3.80;;;;;;;;;;4946959;28;20347;-68
2023/10/09 15:34:57;;;;;;;8.52;4.00;;;;;;;;;;4944404;28;20086;-69
2023/10/09 15:37:23;;;;;;;11.00;5.40;;;;;;;;;;4946598;28;20046;-69
2023/10/09 15:39:49;;;;;;;10.70;4.55;;;;;;;;;;4948140;28;20117;-69
2023/10/09 15:42:16;;;;;;;11.45;4.10;;;;;;;;;;4955889;28;20152;-69
2023/10/09 15:44:47;;;;;;;8.82;4.18;;;;;;;;;;4947333;28;20645;-68
2023/10/09 15:47:15;;;;;;;9.20;4.25;;;;;;;;;;4943656;28;20065;-68
2023/10/09 15:49:43;;;;;;;10.20;3.88;;;;;;;;;;4940425;28;20012;-68
2023/10/09 15:52:13;;;;;;;10.55;4.57;;;;;;;;;;4941839;28;20031;-68
2023/10/09 15:54:42;;;;;;;9.80;4.53;;;;;;;;;;4943200;28;20042;-68
2023/10/09 15:57:13;;;;;;;8.45;3.92;;;;;;;;;;4955710;28;20468;-68
2023/10/09 15:59:39;;;;;;;10.07;4.25;;;;;;;;;;4943000;28;20523;-67
2023/10/09 16:02:05;;;;;;;9.40;4.80;;;;;;;;;;4939969;28;20046;-68
2023/10/09 16:04:34;;;;;;;9.63;4.65;;;;;;;;;;4946567;28;20400;-67
2023/10/09 16:07:01;;;;;;;9.93;4.28;;;;;;;;;;4939918;28;20034;-67
2023/10/09 16:09:29;;;;;;;9.35;4.47;;;;;;;;;;4943446;28;20061;-68
2023/10/09 16:11:55;;;;;;;7.82;4.20;;;;;;;;;;4939471;28;20426;-68
2023/10/09 16:14:21;;;;;;;9.50;4.30;;;;;;;;;;4946690;28;20039;-68
2023/10/09 16:16:48;;;;;;;9.48;4.70;;;;;;;;;;4946622;28;20508;-68
2023/10/09 16:19:15;;;;;;;8.88;4.13;;;;;;;;;;4942492;28;20057;-68
2023/10/09 16:21:42;;;;;;;8.57;3.90;;;;;;;;;;4942786;28;20474;-68
2023/10/09 16:24:09;;;;;;;10.77;4.05;;;;;;;;;;4940578;28;20035;-67
2023/10/09 16:26:45;;;;;;;9.27;4.25;;;;;;;;;;4943199;28;20030;-68
2023/10/09 16:29:11;;;;;;;9.27;4.40;;;;;;;;;;4943427;28;20576;-67
2023/10/09 16:31:38;;;;;;;8.35;3.72;;;;;;;;;;4944818;28;20037;-69
2023/10/09 16:34:06;;;;;;;9.93;4.43;;;;;;;;;;4944362;28;20559;-69
2023/10/09 16:36:36;;;;;;;10.05;4.30;;;;;;;;;;4942582;28;20614;-70
2023/10/09 16:39:03;;;;;;;10.52;4.07;;;;;;;;;;4938635;28;20035;-67
2023/10/09 16:41:29;;;;;;;9.65;3.88;;;;;;;;;;4944113;28;20031;-69
2023/10/09 16:43:59;;;;;;;8.43;3.60;;;;;;;;;;4934811;28;20054;-68
2023/10/09 16:46:25;;;;;;;10.15;4.05;;;;;;;;;;4947580;28;20023;-68
2023/10/09 16:48:55;;;;;;;8.15;3.60;;;;;;;;;;4945343;28;20026;-68
2023/10/09 16:51:22;;;;;;;7.78;3.58;;;;;;;;;;4942219;28;20069;-67
2023/10/09 16:53:51;;;;;;;9.63;4.10;;;;;;;;;;4944296;28;20368;-68
2023/10/09 16:56:19;;;;;;;11.27;4.38;;;;;;;;;;4941705;28;20289;-68
2023/10/09 16:58:46;;;;;;;10.25;3.67;;;;;;;;;;4947066;28;20050;-68
2023/10/09 17:01:13;;;;;;;12.02;4.60;;;;;;;;;;4941214;28;20548;-69
2023/10/09 17:03:43;;;;;;;9.93;4.38;;;;;;;;;;4946349;28;20082;-68
2023/10/09 17:06:17;;;;;;;8.80;4.18;;;;;;;;;;4941056;28;20137;-69
2023/10/09 17:08:45;;;;;;;9.35;4.18;;;;;;;;;;4945212;28;20098;-69
2023/10/09 17:11:14;;;;;;;10.23;4.82;;;;;;;;;;4940026;28;20690;-68
2023/10/09 17:13:44;;;;;;;9.90;4.15;;;;;;;;;;4941163;28;20936;-67
2023/10/09 17:16:17;;;;;;;11.13;5.07;;;;;;;;;;4942160;28;20042;-68
2023/10/09 17:18:51;;;;;;;10.02;4.50;;;;;;;;;;4943570;28;20092;-72
2023/10/09 17:21:20;;;;;;;10.18;4.20;;;;;;;;;;4941078;28;20364;-71
2023/10/09 17:23:46;;;;;;;9.82;4.00;;;;;;;;;;4942306;28;20593;-71
2023/10/09 17:26:14;;;;;;;9.15;3.97;;;;;;;;;;4942267;28;20332;-71
2023/10/09 17:28:41;;;;;;;12.10;4.28;;;;;;;;;;4945943;28;20608;-70
2023/10/09 17:31:07;;;;;;;10.65;4.18;;;;;;;;;;4938944;28;20038;-71
2023/10/09 17:33:34;;;;;;;10.65;3.83;;;;;;;;;;4942721;28;20370;-71
2023/10/09 17:36:01;;;;;;;10.88;4.60;;;;;;;;;;4952211;28;20042;-71
2023/10/09 17:38:30;;;;;;;8.93;3.90;;;;;;;;;;4942230;28;20184;-71
2023/10/09 17:40:57;;;;;;;9.77;3.75;;;;;;;;;;4951137;28;20035;-75
2023/10/09 17:43:24;;;;;;;7.90;3.78;;;;;;;;;;4944999;28;20106;-70
2023/10/09 17:45:54;;;;;;;9.35;4.40;;;;;;;;;;4945146;28;20596;-71
2023/10/09 17:48:21;;;;;;;10.55;4.35;;;;;;;;;;4944948;28;20042;-70
2023/10/09 17:50:47;;;;;;;8.23;4.13;;;;;;;;;;4941557;28;20042;-70
2023/10/09 17:53:13;;;;;;;10.70;5.32;;;;;;;;;;4940442;28;22418;-70
2023/10/09 17:55:40;;;;;;;12.23;5.25;;;;;;;;;;4937420;28;20031;-71
2023/10/09 17:58:06;;;;;;;11.13;5.15;;;;;;;;;;4942174;28;20085;-70
2023/10/09 18:00:39;;;;;;;11.80;5.70;;;;;;;;;;4942305;28;20586;-71
2023/10/09 18:03:06;;;;;;;12.68;5.93;;;;;;;;;;4942278;28;20051;-70
2023/10/09 18:05:33;;;;;;;10.48;5.75;;;;;;;;;;4941485;28;20504;-70
2023/10/09 18:08:01;;;;;;;12.00;5.38;;;;;;;;;;4939650;28;20038;-70
2023/10/09 18:10:40;;;;;;;11.43;5.57;;;;;;;;;;4942121;28;20389;-71
2023/10/09 18:13:07;;;;;;;11.60;6.63;;;;;;;;;;4937065;28;20031;-71
2023/10/09 18:15:33;;;;;;;10.80;5.20;;;;;;;;;;4943548;28;20030;-71
2023/10/09 18:18:05;;;;;;;11.25;5.32;;;;;;;;;;4933933;28;20086;-71
2023/10/09 18:20:32;;;;;;;9.15;4.75;;;;;;;;;;4939315;28;20435;-70
2023/10/09 18:22:59;;;;;;;11.00;5.10;;;;;;;;;;4937465;28;20777;-71